sensor_id;sensor_type;location;lat;lon;timestamp;temperature;humidity
80232;DHT22;74189;42.124;24.752;2024-02-21T00:01:48;9.10;73.40
80232;DHT22;74189;42.124;24.752;2024-02-21T00:04:14;9.10;73.60
80232;DHT22;74189;42.124;24.752;2024-02-21T00:06:40;9.10;73.80
80232;DHT22;74189;42.124;24.752;2024-02-21T00:09:06;9.10;74.30
80232;DHT22;74189;42.124;24.752;2024-02-21T00:11:32;9.00;74.20
80232;DHT22;74189;42.124;24.752;2024-02-21T00:13:59;9.10;74.30
80232;DHT22;74189;42.124;24.752;2024-02-21T00:16:25;9.10;74.00
80232;DHT22;74189;42.124;24.752;2024-02-21T00:18:52;9.10;74.30
80232;DHT22;74189;42.124;24.752;2024-02-21T00:21:18;9.10;74.70
80232;DHT22;74189;42.124;24.752;2024-02-21T00:23:45;9.00;74.90
80232;DHT22;74189;42.124;24.752;2024-02-21T00:26:12;9.10;74.70
80232;DHT22;74189;42.124;24.752;2024-02-21T00:28:39;9.10;75.00
80232;DHT22;74189;42.124;24.752;2024-02-21T00:31:05;9.10;74.80
80232;DHT22;74189;42.124;24.752;2024-02-21T00:33:32;9.10;74.70
80232;DHT22;74189;42.124;24.752;2024-02-21T00:35:58;9.00;75.00
80232;DHT22;74189;42.124;24.752;2024-02-21T00:38:24;8.90;75.50
80232;DHT22;74189;42.124;24.752;2024-02-21T00:40:50;8.80;76.30
80232;DHT22;74189;42.124;24.752;2024-02-21T00:43:17;8.80;76.10
80232;DHT22;74189;42.124;24.752;2024-02-21T00:45:43;8.70;76.50
80232;DHT22;74189;42.124;24.752;2024-02-21T00:48:09;8.70;76.10
80232;DHT22;74189;42.124;24.752;2024-02-21T00:50:35;8.70;75.20
80232;DHT22;74189;42.124;24.752;2024-02-21T00:53:03;8.60;75.20
80232;DHT22;74189;42.124;24.752;2024-02-21T00:55:29;8.50;75.40
80232;DHT22;74189;42.124;24.752;2024-02-21T00:57:56;8.40;76.10
80232;DHT22;74189;42.124;24.752;2024-02-21T01:00:22;8.50;75.60
80232;DHT22;74189;42.124;24.752;2024-02-21T01:02:48;8.60;75.20
80232;DHT22;74189;42.124;24.752;2024-02-21T01:05:15;8.40;75.60
80232;DHT22;74189;42.124;24.752;2024-02-21T01:07:41;8.40;76.30
80232;DHT22;74189;42.124;24.752;2024-02-21T01:10:08;8.50;76.20
80232;DHT22;74189;42.124;24.752;2024-02-21T01:12:34;8.40;76.20
80232;DHT22;74189;42.124;24.752;2024-02-21T01:15:08;8.40;76.10
80232;DHT22;74189;42.124;24.752;2024-02-21T01:17:35;8.30;76.80
80232;DHT22;74189;42.124;24.752;2024-02-21T01:20:02;8.30;76.70
80232;DHT22;74189;42.124;24.752;2024-02-21T01:22:28;8.30;76.70
80232;DHT22;74189;42.124;24.752;2024-02-21T01:24:54;8.40;75.90
80232;DHT22;74189;42.124;24.752;2024-02-21T01:27:21;8.40;74.00
80232;DHT22;74189;42.124;24.752;2024-02-21T01:29:47;8.60;72.20
80232;DHT22;74189;42.124;24.752;2024-02-21T01:32:18;8.40;73.10
80232;DHT22;74189;42.124;24.752;2024-02-21T01:34:45;8.50;71.70
80232;DHT22;74189;42.124;24.752;2024-02-21T01:37:11;8.50;71.50
80232;DHT22;74189;42.124;24.752;2024-02-21T01:39:37;8.60;71.00
80232;DHT22;74189;42.124;24.752;2024-02-21T01:42:04;8.60;71.10
80232;DHT22;74189;42.124;24.752;2024-02-21T01:44:30;8.70;71.00
80232;DHT22;74189;42.124;24.752;2024-02-21T01:46:56;8.90;70.10
80232;DHT22;74189;42.124;24.752;2024-02-21T01:49:22;9.00;70.10
80232;DHT22;74189;42.124;24.752;2024-02-21T01:51:49;9.10;70.10
80232;DHT22;74189;42.124;24.752;2024-02-21T01:54:17;9.10;70.00
80232;DHT22;74189;42.124;24.752;2024-02-21T01:56:45;8.90;70.60
80232;DHT22;74189;42.124;24.752;2024-02-21T01:59:12;8.90;71.00
80232;DHT22;74189;42.124;24.752;2024-02-21T02:01:40;9.00;70.80
80232;DHT22;74189;42.124;24.752;2024-02-21T02:04:07;9.00;71.10
80232;DHT22;74189;42.124;24.752;2024-02-21T02:06:33;9.10;71.00
80232;DHT22;74189;42.124;24.752;2024-02-21T02:09:00;9.10;70.60
80232;DHT22;74189;42.124;24.752;2024-02-21T02:11:26;9.10;70.30
80232;DHT22;74189;42.124;24.752;2024-02-21T02:13:52;9.10;70.50
80232;DHT22;74189;42.124;24.752;2024-02-21T02:16:19;9.20;70.30
80232;DHT22;74189;42.124;24.752;2024-02-21T02:18:45;9.40;70.30
80232;DHT22;74189;42.124;24.752;2024-02-21T02:21:23;9.30;70.10
80232;DHT22;74189;42.124;24.752;2024-02-21T02:23:50;9.20;71.00
80232;DHT22;74189;42.124;24.752;2024-02-21T02:26:17;9.20;71.20
80232;DHT22;74189;42.124;24.752;2024-02-21T02:28:43;9.20;71.50
80232;DHT22;74189;42.124;24.752;2024-02-21T02:31:09;9.20;71.80
80232;DHT22;74189;42.124;24.752;2024-02-21T02:33:35;9.10;72.40
80232;DHT22;74189;42.124;24.752;2024-02-21T02:36:02;9.20;72.20
80232;DHT22;74189;42.124;24.752;2024-02-21T02:38:28;9.20;72.40
80232;DHT22;74189;42.124;24.752;2024-02-21T02:40:54;9.20;72.40
80232;DHT22;74189;42.124;24.752;2024-02-21T02:43:20;9.20;72.30
80232;DHT22;74189;42.124;24.752;2024-02-21T02:45:47;9.40;72.30
80232;DHT22;74189;42.124;24.752;2024-02-21T02:48:13;9.40;72.20
80232;DHT22;74189;42.124;24.752;2024-02-21T03:04:07;9.20;72.10
80232;DHT22;74189;42.124;24.752;2024-02-21T03:06:34;9.60;72.60
80232;DHT22;74189;42.124;24.752;2024-02-21T03:09:00;9.60;72.40
80232;DHT22;74189;42.124;24.752;2024-02-21T03:11:27;9.60;72.30
80232;DHT22;74189;42.124;24.752;2024-02-21T03:13:55;9.60;72.60
80232;DHT22;74189;42.124;24.752;2024-02-21T03:16:23;9.60;72.60
80232;DHT22;74189;42.124;24.752;2024-02-21T03:18:49;9.60;72.50
80232;DHT22;74189;42.124;24.752;2024-02-21T03:21:15;9.40;73.20
80232;DHT22;74189;42.124;24.752;2024-02-21T03:23:41;9.40;73.20
80232;DHT22;74189;42.124;24.752;2024-02-21T03:26:08;9.20;74.40
80232;DHT22;74189;42.124;24.752;2024-02-21T03:28:34;9.20;74.80
80232;DHT22;74189;42.124;24.752;2024-02-21T03:31:00;9.20;74.90
80232;DHT22;74189;42.124;24.752;2024-02-21T03:33:26;9.30;75.00
80232;DHT22;74189;42.124;24.752;2024-02-21T03:35:52;9.30;74.30
80232;DHT22;74189;42.124;24.752;2024-02-21T03:38:19;9.50;72.20
80232;DHT22;74189;42.124;24.752;2024-02-21T03:40:45;9.60;72.10
80232;DHT22;74189;42.124;24.752;2024-02-21T03:43:12;9.50;72.40
80232;DHT22;74189;42.124;24.752;2024-02-21T03:45:38;9.40;71.50
80232;DHT22;74189;42.124;24.752;2024-02-21T03:48:05;9.50;71.60
80232;DHT22;74189;42.124;24.752;2024-02-21T03:50:31;9.40;71.80
80232;DHT22;74189;42.124;24.752;2024-02-21T03:52:57;9.40;71.50
80232;DHT22;74189;42.124;24.752;2024-02-21T03:55:23;9.40;70.90
80232;DHT22;74189;42.124;24.752;2024-02-21T03:57:50;9.30;70.90
80232;DHT22;74189;42.124;24.752;2024-02-21T04:00:16;9.50;70.50
80232;DHT22;74189;42.124;24.752;2024-02-21T04:02:42;9.60;70.40
80232;DHT22;74189;42.124;24.752;2024-02-21T04:05:09;9.40;71.00
80232;DHT22;74189;42.124;24.752;2024-02-21T04:07:38;9.20;71.10
80232;DHT22;74189;42.124;24.752;2024-02-21T04:10:05;9.20;71.20
80232;DHT22;74189;42.124;24.752;2024-02-21T04:12:31;9.30;70.30
80232;DHT22;74189;42.124;24.752;2024-02-21T04:14:57;9.40;69.90
80232;DHT22;74189;42.124;24.752;2024-02-21T04:17:24;9.40;70.00
80232;DHT22;74189;42.124;24.752;2024-02-21T04:19:50;9.50;69.50
80232;DHT22;74189;42.124;24.752;2024-02-21T04:22:19;9.40;69.60
80232;DHT22;74189;42.124;24.752;2024-02-21T04:24:45;9.50;68.60
80232;DHT22;74189;42.124;24.752;2024-02-21T04:27:11;9.60;67.60
80232;DHT22;74189;42.124;24.752;2024-02-21T04:29:38;9.40;67.80
80232;DHT22;74189;42.124;24.752;2024-02-21T04:32:04;9.10;68.50
80232;DHT22;74189;42.124;24.752;2024-02-21T04:34:30;8.90;70.40
80232;DHT22;74189;42.124;24.752;2024-02-21T04:37:00;8.80;70.90
80232;DHT22;74189;42.124;24.752;2024-02-21T04:39:26;8.80;71.40
80232;DHT22;74189;42.124;24.752;2024-02-21T04:41:52;8.70;73.20
80232;DHT22;74189;42.124;24.752;2024-02-21T04:44:18;8.20;75.70
80232;DHT22;74189;42.124;24.752;2024-02-21T04:46:51;8.00;77.70
80232;DHT22;74189;42.124;24.752;2024-02-21T04:49:20;8.00;77.90
80232;DHT22;74189;42.124;24.752;2024-02-21T04:51:46;8.20;77.30
80232;DHT22;74189;42.124;24.752;2024-02-21T04:54:12;8.10;77.30
80232;DHT22;74189;42.124;24.752;2024-02-21T04:56:39;8.30;77.20
80232;DHT22;74189;42.124;24.752;2024-02-21T04:59:05;8.40;76.60
80232;DHT22;74189;42.124;24.752;2024-02-21T05:01:32;8.50;76.20
80232;DHT22;74189;42.124;24.752;2024-02-21T05:03:58;8.70;75.60
80232;DHT22;74189;42.124;24.752;2024-02-21T05:06:24;8.80;75.20
80232;DHT22;74189;42.124;24.752;2024-02-21T05:08:51;8.90;74.70
80232;DHT22;74189;42.124;24.752;2024-02-21T05:11:17;8.90;74.20
80232;DHT22;74189;42.124;24.752;2024-02-21T05:13:43;9.10;74.00
80232;DHT22;74189;42.124;24.752;2024-02-21T05:16:09;9.10;73.50
80232;DHT22;74189;42.124;24.752;2024-02-21T05:18:36;9.10;73.60
80232;DHT22;74189;42.124;24.752;2024-02-21T05:21:02;9.10;73.60
80232;DHT22;74189;42.124;24.752;2024-02-21T05:23:28;9.10;73.20
80232;DHT22;74189;42.124;24.752;2024-02-21T05:25:55;9.10;72.80
80232;DHT22;74189;42.124;24.752;2024-02-21T05:28:21;9.00;72.80
80232;DHT22;74189;42.124;24.752;2024-02-21T05:30:47;9.00;72.70
80232;DHT22;74189;42.124;24.752;2024-02-21T05:33:13;9.10;72.30
80232;DHT22;74189;42.124;24.752;2024-02-21T05:35:50;9.10;72.40
80232;DHT22;74189;42.124;24.752;2024-02-21T05:38:17;9.20;72.20
80232;DHT22;74189;42.124;24.752;2024-02-21T05:40:44;9.30;72.00
80232;DHT22;74189;42.124;24.752;2024-02-21T05:43:11;9.30;71.50
80232;DHT22;74189;42.124;24.752;2024-02-21T05:45:37;9.30;71.70
80232;DHT22;74189;42.124;24.752;2024-02-21T05:48:04;9.20;72.10
80232;DHT22;74189;42.124;24.752;2024-02-21T05:50:31;9.20;72.20
80232;DHT22;74189;42.124;24.752;2024-02-21T05:52:59;9.20;72.30
80232;DHT22;74189;42.124;24.752;2024-02-21T05:55:25;9.30;72.00
80232;DHT22;74189;42.124;24.752;2024-02-21T05:57:54;9.50;71.10
80232;DHT22;74189;42.124;24.752;2024-02-21T06:00:21;9.40;71.50
80232;DHT22;74189;42.124;24.752;2024-02-21T06:02:50;9.40;70.90
80232;DHT22;74189;42.124;24.752;2024-02-21T06:05:16;9.30;71.10
80232;DHT22;74189;42.124;24.752;2024-02-21T06:07:43;9.40;71.20
80232;DHT22;74189;42.124;24.752;2024-02-21T06:10:09;9.40;70.90
80232;DHT22;74189;42.124;24.752;2024-02-21T06:12:35;9.60;70.30
80232;DHT22;74189;42.124;24.752;2024-02-21T06:15:02;9.60;69.90
80232;DHT22;74189;42.124;24.752;2024-02-21T06:17:28;9.80;69.10
80232;DHT22;74189;42.124;24.752;2024-02-21T06:19:55;9.60;69.60
80232;DHT22;74189;42.124;24.752;2024-02-21T06:22:21;9.70;69.90
80232;DHT22;74189;42.124;24.752;2024-02-21T06:24:47;9.80;69.70
80232;DHT22;74189;42.124;24.752;2024-02-21T06:27:14;9.80;69.30
80232;DHT22;74189;42.124;24.752;2024-02-21T06:29:42;9.80;69.60
80232;DHT22;74189;42.124;24.752;2024-02-21T06:32:08;9.90;69.40
80232;DHT22;74189;42.124;24.752;2024-02-21T06:34:34;10.00;68.80
80232;DHT22;74189;42.124;24.752;2024-02-21T06:37:01;10.10;68.10
80232;DHT22;74189;42.124;24.752;2024-02-21T06:39:27;10.20;67.90
80232;DHT22;74189;42.124;24.752;2024-02-21T06:41:55;10.20;68.30
80232;DHT22;74189;42.124;24.752;2024-02-21T06:44:24;10.30;69.00
80232;DHT22;74189;42.124;24.752;2024-02-21T06:46:50;10.40;67.50
80232;DHT22;74189;42.124;24.752;2024-02-21T06:49:16;10.50;67.00
80232;DHT22;74189;42.124;24.752;2024-02-21T06:51:43;10.60;66.80
80232;DHT22;74189;42.124;24.752;2024-02-21T06:54:10;10.70;66.60
80232;DHT22;74189;42.124;24.752;2024-02-21T06:56:37;10.80;66.00
80232;DHT22;74189;42.124;24.752;2024-02-21T06:59:03;10.80;64.60
80232;DHT22;74189;42.124;24.752;2024-02-21T07:01:30;10.70;65.30
80232;DHT22;74189;42.124;24.752;2024-02-21T07:03:56;10.70;64.90
80232;DHT22;74189;42.124;24.752;2024-02-21T07:06:23;10.90;63.90
80232;DHT22;74189;42.124;24.752;2024-02-21T07:08:49;10.70;63.50
80232;DHT22;74189;42.124;24.752;2024-02-21T07:11:15;10.70;63.10
80232;DHT22;74189;42.124;24.752;2024-02-21T07:13:41;10.60;63.90
80232;DHT22;74189;42.124;24.752;2024-02-21T07:16:08;10.60;64.50
80232;DHT22;74189;42.124;24.752;2024-02-21T07:18:37;10.50;64.50
80232;DHT22;74189;42.124;24.752;2024-02-21T07:21:03;10.80;64.60
80232;DHT22;74189;42.124;24.752;2024-02-21T07:23:30;10.80;63.40
80232;DHT22;74189;42.124;24.752;2024-02-21T07:25:56;10.90;63.00
80232;DHT22;74189;42.124;24.752;2024-02-21T07:28:22;10.90;62.90
80232;DHT22;74189;42.124;24.752;2024-02-21T07:30:49;10.90;63.00
80232;DHT22;74189;42.124;24.752;2024-02-21T07:33:15;11.00;62.80
80232;DHT22;74189;42.124;24.752;2024-02-21T07:35:41;11.20;62.50
80232;DHT22;74189;42.124;24.752;2024-02-21T07:38:10;11.40;62.00
80232;DHT22;74189;42.124;24.752;2024-02-21T07:40:41;11.40;63.10
80232;DHT22;74189;42.124;24.752;2024-02-21T07:43:07;11.60;61.60
80232;DHT22;74189;42.124;24.752;2024-02-21T07:45:33;11.70;61.20
80232;DHT22;74189;42.124;24.752;2024-02-21T07:48:00;11.40;61.00
80232;DHT22;74189;42.124;24.752;2024-02-21T07:50:26;11.30;62.70
80232;DHT22;74189;42.124;24.752;2024-02-21T07:52:52;11.40;62.10
80232;DHT22;74189;42.124;24.752;2024-02-21T07:55:19;11.40;61.60
80232;DHT22;74189;42.124;24.752;2024-02-21T07:57:45;11.50;60.70
80232;DHT22;74189;42.124;24.752;2024-02-21T08:00:12;11.50;60.20
80232;DHT22;74189;42.124;24.752;2024-02-21T08:02:46;11.40;60.70
80232;DHT22;74189;42.124;24.752;2024-02-21T08:05:12;11.40;60.90
80232;DHT22;74189;42.124;24.752;2024-02-21T08:07:38;11.50;60.80
80232;DHT22;74189;42.124;24.752;2024-02-21T08:10:05;11.30;61.30
80232;DHT22;74189;42.124;24.752;2024-02-21T08:12:37;11.20;62.20
80232;DHT22;74189;42.124;24.752;2024-02-21T08:15:04;11.40;62.30
80232;DHT22;74189;42.124;24.752;2024-02-21T08:17:30;11.60;61.90
80232;DHT22;74189;42.124;24.752;2024-02-21T08:19:57;11.60;61.40
80232;DHT22;74189;42.124;24.752;2024-02-21T08:22:23;11.60;61.90
80232;DHT22;74189;42.124;24.752;2024-02-21T08:24:49;11.50;61.20
80232;DHT22;74189;42.124;24.752;2024-02-21T08:27:15;11.70;60.40
80232;DHT22;74189;42.124;24.752;2024-02-21T08:29:42;11.70;59.90
80232;DHT22;74189;42.124;24.752;2024-02-21T08:32:08;11.70;58.10
80232;DHT22;74189;42.124;24.752;2024-02-21T08:34:34;11.60;57.80
80232;DHT22;74189;42.124;24.752;2024-02-21T08:37:00;11.70;57.80
80232;DHT22;74189;42.124;24.752;2024-02-21T08:39:27;11.90;57.30
80232;DHT22;74189;42.124;24.752;2024-02-21T08:41:54;11.90;56.30
80232;DHT22;74189;42.124;24.752;2024-02-21T08:44:27;11.70;57.40
80232;DHT22;74189;42.124;24.752;2024-02-21T08:46:53;11.60;57.60
80232;DHT22;74189;42.124;24.752;2024-02-21T08:49:20;11.60;58.40
80232;DHT22;74189;42.124;24.752;2024-02-21T08:51:46;11.70;58.50
80232;DHT22;74189;42.124;24.752;2024-02-21T08:54:12;11.90;58.20
80232;DHT22;74189;42.124;24.752;2024-02-21T08:56:38;12.10;57.90
80232;DHT22;74189;42.124;24.752;2024-02-21T08:59:05;12.50;57.10
80232;DHT22;74189;42.124;24.752;2024-02-21T09:01:31;12.80;56.10
80232;DHT22;74189;42.124;24.752;2024-02-21T09:04:00;12.80;55.80
80232;DHT22;74189;42.124;24.752;2024-02-21T09:06:26;12.80;55.90
80232;DHT22;74189;42.124;24.752;2024-02-21T09:08:56;12.50;56.80
80232;DHT22;74189;42.124;24.752;2024-02-21T09:11:23;12.20;57.80
80232;DHT22;74189;42.124;24.752;2024-02-21T09:13:49;12.10;57.80
80232;DHT22;74189;42.124;24.752;2024-02-21T09:16:16;12.10;58.30
80232;DHT22;74189;42.124;24.752;2024-02-21T09:18:42;12.10;58.40
80232;DHT22;74189;42.124;24.752;2024-02-21T09:21:08;12.30;57.40
80232;DHT22;74189;42.124;24.752;2024-02-21T09:23:35;12.20;57.60
80232;DHT22;74189;42.124;24.752;2024-02-21T09:26:01;12.20;57.30
80232;DHT22;74189;42.124;24.752;2024-02-21T09:28:29;11.70;59.10
80232;DHT22;74189;42.124;24.752;2024-02-21T09:30:56;11.90;60.10
80232;DHT22;74189;42.124;24.752;2024-02-21T09:33:22;11.90;59.40
80232;DHT22;74189;42.124;24.752;2024-02-21T09:35:48;12.10;58.30
80232;DHT22;74189;42.124;24.752;2024-02-21T09:38:15;12.10;58.50
80232;DHT22;74189;42.124;24.752;2024-02-21T09:40:42;12.00;58.90
80232;DHT22;74189;42.124;24.752;2024-02-21T09:43:08;12.10;58.70
80232;DHT22;74189;42.124;24.752;2024-02-21T09:45:34;12.20;58.20
80232;DHT22;74189;42.124;24.752;2024-02-21T09:50:44;12.40;55.00
80232;DHT22;74189;42.124;24.752;2024-02-21T09:53:12;12.50;54.70
80232;DHT22;74189;42.124;24.752;2024-02-21T09:55:43;12.70;55.10
80232;DHT22;74189;42.124;24.752;2024-02-21T09:58:10;12.70;53.80
80232;DHT22;74189;42.124;24.752;2024-02-21T10:00:36;12.70;53.50
80232;DHT22;74189;42.124;24.752;2024-02-21T10:03:03;12.70;53.20
80232;DHT22;74189;42.124;24.752;2024-02-21T10:05:37;12.70;53.10
80232;DHT22;74189;42.124;24.752;2024-02-21T10:08:04;12.30;54.80
80232;DHT22;74189;42.124;24.752;2024-02-21T10:10:44;12.30;54.60
80232;DHT22;74189;42.124;24.752;2024-02-21T10:13:30;12.30;53.40
80232;DHT22;74189;42.124;24.752;2024-02-21T10:16:06;12.30;54.40
80232;DHT22;74189;42.124;24.752;2024-02-21T10:18:33;12.50;52.90
80232;DHT22;74189;42.124;24.752;2024-02-21T10:21:03;12.30;53.10
80232;DHT22;74189;42.124;24.752;2024-02-21T10:23:48;12.40;53.90
80232;DHT22;74189;42.124;24.752;2024-02-21T10:26:16;12.40;53.70
80232;DHT22;74189;42.124;24.752;2024-02-21T10:28:42;12.50;53.30
80232;DHT22;74189;42.124;24.752;2024-02-21T10:31:21;12.70;52.70
80232;DHT22;74189;42.124;24.752;2024-02-21T10:34:01;12.90;50.80
80232;DHT22;74189;42.124;24.752;2024-02-21T10:36:31;13.10;50.10
80232;DHT22;74189;42.124;24.752;2024-02-21T10:38:57;13.10;49.30
80232;DHT22;74189;42.124;24.752;2024-02-21T10:41:24;13.10;49.80
80232;DHT22;74189;42.124;24.752;2024-02-21T10:43:52;13.40;48.30
80232;DHT22;74189;42.124;24.752;2024-02-21T10:46:24;13.50;48.50
80232;DHT22;74189;42.124;24.752;2024-02-21T10:49:07;13.40;48.10
80232;DHT22;74189;42.124;24.752;2024-02-21T10:51:42;13.20;48.20
80232;DHT22;74189;42.124;24.752;2024-02-21T10:56:45;13.20;48.90
80232;DHT22;74189;42.124;24.752;2024-02-21T10:59:13;13.40;48.40
80232;DHT22;74189;42.124;24.752;2024-02-21T11:01:42;13.60;47.80
80232;DHT22;74189;42.124;24.752;2024-02-21T11:04:09;13.80;47.20
80232;DHT22;74189;42.124;24.752;2024-02-21T11:06:39;13.60;47.40
80232;DHT22;74189;42.124;24.752;2024-02-21T11:09:09;13.30;47.70
80232;DHT22;74189;42.124;24.752;2024-02-21T11:11:36;13.50;48.00
80232;DHT22;74189;42.124;24.752;2024-02-21T11:14:11;13.30;48.00
80232;DHT22;74189;42.124;24.752;2024-02-21T11:16:43;13.40;48.70
80232;DHT22;74189;42.124;24.752;2024-02-21T11:19:26;13.40;47.70
80232;DHT22;74189;42.124;24.752;2024-02-21T11:21:53;13.70;47.30
80232;DHT22;74189;42.124;24.752;2024-02-21T11:26:55;14.00;46.10
80232;DHT22;74189;42.124;24.752;2024-02-21T11:29:24;14.00;46.30
80232;DHT22;74189;42.124;24.752;2024-02-21T11:31:52;14.10;46.10
80232;DHT22;74189;42.124;24.752;2024-02-21T11:34:19;14.30;44.60
80232;DHT22;74189;42.124;24.752;2024-02-21T11:36:49;14.30;45.60
80232;DHT22;74189;42.124;24.752;2024-02-21T11:39:26;14.20;45.10
80232;DHT22;74189;42.124;24.752;2024-02-21T11:42:06;14.30;45.30
80232;DHT22;74189;42.124;24.752;2024-02-21T11:44:35;14.50;44.50
80232;DHT22;74189;42.124;24.752;2024-02-21T11:47:09;14.30;44.60
80232;DHT22;74189;42.124;24.752;2024-02-21T11:49:44;14.20;44.30
80232;DHT22;74189;42.124;24.752;2024-02-21T11:52:16;14.30;44.00
80232;DHT22;74189;42.124;24.752;2024-02-21T11:54:45;14.40;43.70
80232;DHT22;74189;42.124;24.752;2024-02-21T11:57:12;14.40;43.50
80232;DHT22;74189;42.124;24.752;2024-02-21T11:59:40;14.30;44.30
80232;DHT22;74189;42.124;24.752;2024-02-21T12:02:06;14.50;43.70
80232;DHT22;74189;42.124;24.752;2024-02-21T12:04:34;14.30;44.40
80232;DHT22;74189;42.124;24.752;2024-02-21T12:07:01;14.30;44.40
80232;DHT22;74189;42.124;24.752;2024-02-21T12:09:30;14.40;44.40
80232;DHT22;74189;42.124;24.752;2024-02-21T12:12:03;14.50;44.10
80232;DHT22;74189;42.124;24.752;2024-02-21T12:14:32;14.70;43.00
80232;DHT22;74189;42.124;24.752;2024-02-21T12:16:59;14.50;43.50
80232;DHT22;74189;42.124;24.752;2024-02-21T12:19:26;14.40;44.30
80232;DHT22;74189;42.124;24.752;2024-02-21T12:21:54;14.50;43.80
80232;DHT22;74189;42.124;24.752;2024-02-21T12:24:25;14.60;43.90
80232;DHT22;74189;42.124;24.752;2024-02-21T12:26:56;14.80;41.60
80232;DHT22;74189;42.124;24.752;2024-02-21T12:29:25;14.90;41.20
80232;DHT22;74189;42.124;24.752;2024-02-21T12:31:52;15.10;40.40
80232;DHT22;74189;42.124;24.752;2024-02-21T12:34:20;15.00;41.10
80232;DHT22;74189;42.124;24.752;2024-02-21T12:36:48;15.00;41.00
80232;DHT22;74189;42.124;24.752;2024-02-21T12:39:14;15.00;40.30
80232;DHT22;74189;42.124;24.752;2024-02-21T12:41:43;14.90;40.80
80232;DHT22;74189;42.124;24.752;2024-02-21T12:44:10;14.60;41.00
80232;DHT22;74189;42.124;24.752;2024-02-21T12:46:38;14.70;41.30
80232;DHT22;74189;42.124;24.752;2024-02-21T12:49:17;14.70;41.80
80232;DHT22;74189;42.124;24.752;2024-02-21T12:51:44;14.80;41.30
80232;DHT22;74189;42.124;24.752;2024-02-21T12:54:12;14.90;41.40
80232;DHT22;74189;42.124;24.752;2024-02-21T12:56:39;14.90;40.30
80232;DHT22;74189;42.124;24.752;2024-02-21T12:59:08;15.10;39.90
80232;DHT22;74189;42.124;24.752;2024-02-21T13:01:37;15.00;39.80
80232;DHT22;74189;42.124;24.752;2024-02-21T13:04:03;15.20;39.10
80232;DHT22;74189;42.124;24.752;2024-02-21T13:06:30;15.10;39.50
80232;DHT22;74189;42.124;24.752;2024-02-21T13:08:56;15.10;40.20
80232;DHT22;74189;42.124;24.752;2024-02-21T13:11:22;15.20;40.10
80232;DHT22;74189;42.124;24.752;2024-02-21T13:13:52;15.40;39.60
80232;DHT22;74189;42.124;24.752;2024-02-21T13:16:19;15.40;38.90
80232;DHT22;74189;42.124;24.752;2024-02-21T13:18:45;15.50;38.50
80232;DHT22;74189;42.124;24.752;2024-02-21T13:21:13;15.70;38.40
80232;DHT22;74189;42.124;24.752;2024-02-21T13:23:40;15.60;37.40
80232;DHT22;74189;42.124;24.752;2024-02-21T13:26:06;15.70;38.30
80232;DHT22;74189;42.124;24.752;2024-02-21T13:28:33;15.90;37.20
80232;DHT22;74189;42.124;24.752;2024-02-21T13:31:02;16.00;38.00
80232;DHT22;74189;42.124;24.752;2024-02-21T13:33:29;16.10;37.70
80232;DHT22;74189;42.124;24.752;2024-02-21T13:35:55;16.20;37.30
80232;DHT22;74189;42.124;24.752;2024-02-21T13:38:27;16.20;36.60
80232;DHT22;74189;42.124;24.752;2024-02-21T13:40:54;16.20;36.50
80232;DHT22;74189;42.124;24.752;2024-02-21T13:43:26;15.90;37.40
80232;DHT22;74189;42.124;24.752;2024-02-21T13:46:01;15.80;37.00
80232;DHT22;74189;42.124;24.752;2024-02-21T13:48:35;15.70;36.90
80232;DHT22;74189;42.124;24.752;2024-02-21T13:51:02;15.70;36.70
80232;DHT22;74189;42.124;24.752;2024-02-21T13:53:28;15.50;37.60
80232;DHT22;74189;42.124;24.752;2024-02-21T13:55:55;15.50;38.00
80232;DHT22;74189;42.124;24.752;2024-02-21T13:58:21;15.60;38.20
80232;DHT22;74189;42.124;24.752;2024-02-21T14:00:48;15.70;37.60
80232;DHT22;74189;42.124;24.752;2024-02-21T14:03:14;15.90;37.20
80232;DHT22;74189;42.124;24.752;2024-02-21T14:05:40;15.90;36.20
80232;DHT22;74189;42.124;24.752;2024-02-21T14:08:10;15.90;35.50
80232;DHT22;74189;42.124;24.752;2024-02-21T14:10:36;16.10;36.00
80232;DHT22;74189;42.124;24.752;2024-02-21T14:13:06;16.10;35.20
80232;DHT22;74189;42.124;24.752;2024-02-21T14:15:32;16.20;34.80
80232;DHT22;74189;42.124;24.752;2024-02-21T14:17:58;16.20;34.70
80232;DHT22;74189;42.124;24.752;2024-02-21T14:20:28;16.00;35.00
80232;DHT22;74189;42.124;24.752;2024-02-21T14:22:58;16.00;35.10
80232;DHT22;74189;42.124;24.752;2024-02-21T14:25:24;15.90;37.40
80232;DHT22;74189;42.124;24.752;2024-02-21T14:27:50;15.30;39.50
80232;DHT22;74189;42.124;24.752;2024-02-21T14:30:17;15.10;41.00
80232;DHT22;74189;42.124;24.752;2024-02-21T14:32:44;14.40;42.40
80232;DHT22;74189;42.124;24.752;2024-02-21T14:35:10;13.90;43.80
80232;DHT22;74189;42.124;24.752;2024-02-21T14:37:37;13.60;45.00
80232;DHT22;74189;42.124;24.752;2024-02-21T14:40:03;13.60;44.80
80232;DHT22;74189;42.124;24.752;2024-02-21T14:42:30;13.70;44.70
80232;DHT22;74189;42.124;24.752;2024-02-21T14:44:56;13.80;44.50
80232;DHT22;74189;42.124;24.752;2024-02-21T14:47:30;13.80;44.50
80232;DHT22;74189;42.124;24.752;2024-02-21T14:49:56;13.70;44.80
80232;DHT22;74189;42.124;24.752;2024-02-21T14:52:22;13.70;44.80
80232;DHT22;74189;42.124;24.752;2024-02-21T14:54:51;13.60;45.00
80232;DHT22;74189;42.124;24.752;2024-02-21T14:57:20;13.60;45.30
80232;DHT22;74189;42.124;24.752;2024-02-21T14:59:50;13.60;45.30
80232;DHT22;74189;42.124;24.752;2024-02-21T15:02:22;13.60;44.90
80232;DHT22;74189;42.124;24.752;2024-02-21T15:04:49;13.70;45.10
80232;DHT22;74189;42.124;24.752;2024-02-21T15:07:19;13.70;45.00
80232;DHT22;74189;42.124;24.752;2024-02-21T15:09:45;13.90;44.30
80232;DHT22;74189;42.124;24.752;2024-02-21T15:12:12;13.60;44.70
80232;DHT22;74189;42.124;24.752;2024-02-21T15:14:38;13.50;45.70
80232;DHT22;74189;42.124;24.752;2024-02-21T15:17:07;13.60;45.70
80232;DHT22;74189;42.124;24.752;2024-02-21T15:19:33;13.60;45.50
80232;DHT22;74189;42.124;24.752;2024-02-21T15:22:03;13.60;45.00
80232;DHT22;74189;42.124;24.752;2024-02-21T15:24:30;13.50;45.20
80232;DHT22;74189;42.124;24.752;2024-02-21T15:26:56;13.50;45.60
80232;DHT22;74189;42.124;24.752;2024-02-21T15:29:23;13.50;45.30
80232;DHT22;74189;42.124;24.752;2024-02-21T15:31:50;13.70;45.20
80232;DHT22;74189;42.124;24.752;2024-02-21T15:34:16;13.80;45.00
80232;DHT22;74189;42.124;24.752;2024-02-21T15:36:43;13.80;44.60
80232;DHT22;74189;42.124;24.752;2024-02-21T15:39:13;13.70;45.20
80232;DHT22;74189;42.124;24.752;2024-02-21T15:41:39;13.50;45.30
80232;DHT22;74189;42.124;24.752;2024-02-21T15:44:06;13.40;45.60
80232;DHT22;74189;42.124;24.752;2024-02-21T15:46:35;13.50;45.80